createdAt,value
2018-01-21T00:01:30.609Z,10.40
2018-01-21T00:03:59.339Z,10.98
2018-01-21T00:06:28.805Z,14.93
2018-01-21T00:08:57.497Z,10.63
2018-01-21T00:11:26.198Z,13.00
2018-01-21T00:13:55.131Z,12.30
2018-01-21T00:16:23.825Z,15.73
2018-01-21T00:18:52.539Z,15.02
2018-01-21T00:21:21.254Z,12.07
2018-01-21T00:23:49.925Z,15.32
2018-01-21T00:26:18.633Z,14.90
2018-01-21T00:28:47.308Z,14.73
2018-01-21T00:31:15.989Z,14.70
2018-01-21T00:33:44.689Z,13.10
2018-01-21T00:36:13.407Z,11.60
2018-01-21T00:38:42.881Z,10.30
2018-01-21T00:41:11.572Z,11.73
2018-01-21T00:43:40.274Z,12.07
2018-01-21T00:46:09.740Z,13.00
2018-01-21T00:48:38.433Z,15.77
2018-01-21T00:51:07.127Z,17.65
2018-01-21T00:53:35.813Z,15.43
2018-01-21T00:56:04.489Z,16.23
2018-01-21T00:58:33.181Z,13.52
2018-01-21T01:01:01.981Z,13.70
2018-01-21T01:03:30.676Z,12.02
2018-01-21T01:06:00.161Z,14.70
2018-01-21T01:08:28.885Z,14.43
2018-01-21T01:10:57.600Z,17.40
2018-01-21T01:13:26.276Z,11.80
2018-01-21T01:15:55.040Z,15.68
2018-01-21T01:18:24.485Z,21.95
2018-01-21T01:20:53.193Z,14.87
2018-01-21T01:23:21.894Z,15.05
2018-01-21T01:25:50.578Z,14.90
2018-01-21T01:28:19.339Z,14.65
2018-01-21T01:30:48.063Z,17.00
2018-01-21T01:33:16.780Z,14.32
2018-01-21T01:35:45.500Z,14.68
2018-01-21T01:38:14.211Z,15.02
2018-01-21T01:40:42.946Z,16.37
2018-01-21T01:43:12.413Z,13.20
2018-01-21T01:45:41.118Z,14.90
2018-01-21T01:48:10.615Z,17.25
2018-01-21T01:50:40.103Z,14.40
2018-01-21T01:53:08.798Z,12.73
2018-01-21T01:55:37.504Z,12.52
2018-01-21T01:58:06.979Z,17.08
2018-01-21T02:00:35.840Z,12.90
2018-01-21T02:03:04.557Z,14.27
2018-01-21T02:05:33.273Z,13.70
2018-01-21T02:08:01.991Z,11.35
2018-01-21T02:10:30.717Z,10.77
2018-01-21T02:13:00.205Z,24.05
2018-01-21T02:15:28.896Z,12.90
2018-01-21T02:17:58.081Z,15.00
2018-01-21T02:20:26.437Z,14.48
2018-01-21T02:22:55.893Z,13.23
2018-01-21T02:25:24.611Z,13.93
2018-01-21T02:27:54.063Z,11.68
2018-01-21T02:30:22.445Z,16.35
2018-01-21T02:32:51.180Z,14.55
2018-01-21T02:35:20.670Z,16.52
2018-01-21T02:37:49.382Z,14.23
2018-01-21T02:40:18.847Z,13.35
2018-01-21T02:42:47.546Z,12.85
2018-01-21T02:45:16.249Z,15.15
2018-01-21T02:47:44.933Z,13.32
2018-01-21T02:50:13.644Z,16.25
2018-01-21T02:52:43.097Z,20.00
2018-01-21T02:55:11.818Z,17.67
2018-01-21T02:57:40.526Z,14.25
2018-01-21T03:00:10.019Z,16.12
2018-01-21T03:02:39.485Z,16.40
2018-01-21T03:05:08.226Z,11.77
2018-01-21T03:07:37.681Z,17.05
2018-01-21T03:10:06.401Z,17.02
2018-01-21T03:12:35.845Z,14.02
2018-01-21T03:15:04.229Z,14.25
2018-01-21T03:17:32.921Z,22.67
2018-01-21T03:20:01.302Z,16.33
2018-01-21T03:22:30.014Z,13.85
2018-01-21T03:24:58.709Z,17.92
2018-01-21T03:27:27.400Z,14.15
2018-01-21T03:29:56.114Z,13.07
2018-01-21T03:32:24.817Z,16.33
2018-01-21T03:34:53.508Z,13.82
2018-01-21T03:37:22.253Z,16.95
2018-01-21T03:39:50.948Z,14.75
2018-01-21T03:42:19.641Z,15.13
2018-01-21T03:44:49.141Z,14.10
2018-01-21T03:47:17.849Z,14.75
2018-01-21T03:49:47.332Z,14.77
2018-01-21T03:52:16.057Z,13.10
2018-01-21T03:54:45.729Z,15.77
2018-01-21T03:57:15.205Z,13.88
2018-01-21T03:59:43.922Z,12.95
2018-01-21T04:02:13.381Z,14.80
2018-01-21T04:04:42.087Z,13.30
2018-01-21T04:07:10.836Z,15.23
2018-01-21T04:09:39.526Z,19.17
2018-01-21T04:12:08.225Z,16.15
2018-01-21T04:14:37.727Z,14.45
2018-01-21T04:17:06.404Z,14.70
2018-01-21T04:19:35.099Z,12.23
2018-01-21T04:22:03.830Z,13.68
2018-01-21T04:24:32.501Z,12.48
2018-01-21T04:27:01.219Z,15.13
2018-01-21T04:29:30.717Z,15.55
2018-01-21T04:31:59.406Z,16.87
2018-01-21T04:34:28.118Z,12.23
2018-01-21T04:36:57.594Z,15.82
2018-01-21T04:39:26.297Z,12.37
2018-01-21T04:41:54.988Z,13.80
2018-01-21T04:44:24.465Z,15.82
2018-01-21T04:46:53.162Z,16.27
2018-01-21T04:49:21.884Z,16.05
2018-01-21T04:51:51.369Z,13.07
2018-01-21T04:54:20.845Z,13.43
2018-01-21T04:56:49.537Z,14.73
2018-01-21T04:59:18.259Z,13.95
2018-01-21T05:01:47.722Z,16.12
2018-01-21T05:04:16.421Z,17.55
2018-01-21T05:06:45.147Z,21.67
2018-01-21T05:09:14.604Z,18.77
2018-01-21T05:11:43.324Z,17.17
2018-01-21T05:14:12.805Z,15.60
2018-01-21T05:16:41.532Z,20.12
2018-01-21T05:19:11.021Z,17.25
2018-01-21T05:21:40.508Z,19.27
2018-01-21T05:24:09.988Z,19.55
2018-01-21T05:26:38.710Z,25.23
2018-01-21T05:29:07.417Z,19.35
2018-01-21T05:31:36.876Z,20.88
2018-01-21T05:34:05.316Z,23.40
2018-01-21T05:36:34.817Z,21.25
2018-01-21T05:39:03.603Z,18.27
2018-01-21T05:41:33.069Z,19.85
2018-01-21T05:44:01.775Z,17.80
2018-01-21T05:46:30.477Z,21.25
2018-01-21T05:48:59.753Z,19.35
2018-01-21T05:51:28.315Z,18.00
2018-01-21T05:53:56.829Z,18.50
2018-01-21T05:56:25.531Z,19.50
2018-01-21T05:58:55.047Z,17.87
2018-01-21T06:01:23.750Z,16.12
2018-01-21T06:03:52.436Z,18.45
2018-01-21T06:06:22.106Z,13.85
2018-01-21T06:08:50.837Z,13.80
2018-01-21T06:11:19.525Z,23.23
2018-01-21T06:13:49.023Z,14.50
2018-01-21T06:16:17.717Z,16.62
2018-01-21T06:18:46.402Z,18.02
2018-01-21T06:21:14.913Z,22.92
2018-01-21T06:23:43.617Z,23.02
2018-01-21T06:26:12.298Z,22.60
2018-01-21T06:28:41.010Z,21.85
2018-01-21T06:31:09.696Z,18.15
2018-01-21T06:33:38.412Z,19.73
2018-01-21T06:36:07.138Z,19.50
2018-01-21T06:38:35.840Z,18.10
2018-01-21T06:41:04.566Z,22.27
2018-01-21T06:43:33.252Z,21.30
2018-01-21T06:46:02.721Z,17.67
2018-01-21T06:48:31.425Z,16.73
2018-01-21T06:51:00.138Z,16.30
2018-01-21T06:53:28.833Z,14.20
2018-01-21T06:55:57.577Z,17.95
2018-01-21T06:58:26.291Z,15.82
2018-01-21T07:00:55.045Z,16.62
2018-01-21T07:03:24.692Z,17.95
2018-01-21T07:05:54.141Z,19.80
2018-01-21T07:08:22.843Z,18.52
2018-01-21T07:10:51.585Z,16.15
2018-01-21T07:13:20.357Z,20.37
2018-01-21T07:15:49.046Z,16.48
2018-01-21T07:18:18.514Z,22.50
2018-01-21T07:20:47.209Z,23.30
2018-01-21T07:23:15.897Z,23.65
2018-01-21T07:25:46.164Z,25.33
2018-01-21T07:28:14.880Z,23.52
2018-01-21T07:30:43.574Z,21.10
2018-01-21T07:33:12.288Z,26.08
2018-01-21T07:35:40.972Z,23.15
2018-01-21T07:38:09.654Z,25.40
2018-01-21T07:40:38.386Z,27.35
2018-01-21T07:43:07.085Z,28.08
2018-01-21T07:45:35.778Z,24.85
2018-01-21T07:48:04.542Z,26.48
2018-01-21T07:50:34.018Z,26.40
2018-01-21T07:53:02.694Z,21.85
2018-01-21T07:55:31.430Z,29.75
2018-01-21T07:58:00.145Z,22.90
2018-01-21T08:00:28.843Z,25.55
2018-01-21T08:02:57.569Z,25.90
2018-01-21T08:05:27.052Z,24.80
2018-01-21T08:07:55.849Z,17.92
2018-01-21T08:10:24.542Z,21.65
2018-01-21T08:12:53.260Z,18.73
2018-01-21T08:15:22.042Z,19.80
2018-01-21T08:17:51.513Z,18.83
2018-01-21T08:20:20.199Z,17.27
2018-01-21T08:22:48.924Z,21.52
2018-01-21T08:25:17.781Z,18.17
2018-01-21T08:27:46.466Z,17.15
2018-01-21T08:30:15.183Z,12.80
2018-01-21T08:32:44.636Z,12.82
2018-01-21T08:35:18.852Z,15.63
2018-01-21T08:37:53.040Z,16.45
2018-01-21T08:40:27.200Z,11.85
2018-01-21T08:42:55.662Z,17.15
2018-01-21T08:45:24.305Z,18.27
2018-01-21T08:47:53.733Z,9.15
2018-01-21T08:50:22.377Z,12.35
2018-01-21T08:52:50.847Z,14.48
2018-01-21T08:55:19.244Z,16.67
2018-01-21T08:57:47.641Z,36.40
2018-01-21T09:00:16.100Z,25.40
2018-01-21T09:02:44.585Z,23.40
2018-01-21T09:05:12.983Z,27.33
2018-01-21T09:07:41.561Z,12.20
2018-01-21T09:10:10.015Z,17.57
2018-01-21T09:12:39.218Z,11.07
2018-01-21T09:15:08.393Z,12.67
2018-01-21T09:17:36.831Z,18.70
2018-01-21T09:20:05.262Z,13.33
2018-01-21T09:22:34.303Z,12.17
2018-01-21T09:25:02.704Z,13.40
2018-01-21T09:27:31.124Z,11.80
2018-01-21T09:30:00.335Z,10.03
2018-01-21T09:32:29.523Z,10.70
2018-01-21T09:34:58.716Z,12.00
2018-01-21T09:37:27.939Z,12.27
2018-01-21T09:39:56.367Z,10.90
2018-01-21T09:42:24.800Z,11.57
2018-01-21T09:44:53.265Z,11.33
2018-01-21T09:47:25.786Z,10.40
2018-01-21T09:49:54.228Z,10.50
2018-01-21T09:52:23.424Z,10.27
2018-01-21T09:54:52.636Z,10.67
2018-01-21T09:57:21.103Z,11.53
2018-01-21T09:59:50.303Z,9.70
2018-01-21T10:02:19.516Z,10.23
2018-01-21T10:04:47.947Z,9.90
2018-01-21T10:07:16.415Z,10.57
2018-01-21T10:09:44.844Z,9.77
2018-01-21T10:12:14.045Z,9.03
2018-01-21T10:14:43.299Z,10.20
2018-01-21T10:17:11.739Z,8.83
2018-01-21T10:19:40.177Z,9.40
2018-01-21T10:22:08.644Z,9.23
2018-01-21T10:24:37.078Z,8.97
2018-01-21T10:27:05.779Z,8.47
2018-01-21T10:29:34.617Z,7.10
2018-01-21T10:32:03.067Z,10.73
2018-01-21T10:34:31.580Z,10.40
2018-01-21T10:37:00.012Z,9.50
2018-01-21T10:39:28.453Z,8.60
2018-01-21T10:41:56.904Z,9.00
2018-01-21T10:44:25.352Z,7.97
2018-01-21T10:46:53.818Z,12.80
2018-01-21T10:49:23.021Z,10.50
2018-01-21T10:52:06.629Z,8.57
2018-01-21T10:54:35.074Z,9.30
2018-01-21T10:57:03.575Z,8.00
2018-01-21T10:59:32.016Z,10.20
2018-01-21T11:02:00.465Z,7.60
2018-01-21T11:04:28.899Z,10.30
2018-01-21T11:06:57.334Z,7.90
2018-01-21T11:09:26.544Z,6.90
2018-01-21T11:11:55.603Z,6.40
2018-01-21T11:14:24.035Z,7.37
2018-01-21T11:16:52.475Z,8.30
2018-01-21T11:19:20.900Z,8.30
2018-01-21T11:21:49.328Z,9.13
2018-01-21T11:24:17.768Z,8.03
2018-01-21T11:26:46.209Z,8.00
2018-01-21T11:29:14.646Z,5.30
2018-01-21T11:31:43.058Z,7.20
2018-01-21T11:34:11.710Z,7.33
2018-01-21T11:36:40.148Z,2.20
2018-01-21T11:39:09.341Z,7.20
2018-01-21T11:41:37.787Z,5.30
2018-01-21T11:44:05.912Z,4.40
2018-01-21T11:46:35.109Z,6.60
2018-01-21T11:49:03.596Z,1.80
2018-01-21T11:51:32.795Z,5.20
2018-01-21T11:54:01.230Z,16.67
2018-01-21T11:56:29.334Z,10.73
2018-01-21T11:58:58.534Z,12.80
2018-01-21T12:01:27.808Z,11.87
2018-01-21T12:03:56.443Z,11.40
2018-01-21T12:06:24.891Z,10.93
2018-01-21T12:08:53.360Z,16.70
2018-01-21T12:11:21.787Z,10.10
2018-01-21T12:13:50.239Z,10.97
2018-01-21T12:16:18.726Z,17.53
2018-01-21T12:18:47.915Z,13.10
2018-01-21T12:21:16.312Z,10.93
2018-01-21T12:23:45.507Z,5.50
2018-01-21T12:26:14.710Z,4.30
2018-01-21T12:28:43.880Z,3.67
2018-01-21T12:31:12.294Z,1.67
2018-01-21T12:33:41.041Z,11.85
2018-01-21T12:36:09.721Z,0.93
2018-01-21T12:38:38.419Z,2.03
2018-01-21T12:41:07.100Z,1.10
2018-01-21T12:43:35.782Z,2.30
2018-01-21T12:46:04.216Z,1.50
2018-01-21T12:48:32.656Z,1.40
2018-01-21T12:51:01.050Z,1.50
2018-01-21T12:53:29.499Z,2.20
2018-01-21T12:55:57.591Z,0.97
2018-01-21T12:58:26.006Z,1.17
2018-01-21T13:00:55.207Z,1.67
2018-01-21T13:03:24.194Z,1.30
2018-01-21T13:05:53.389Z,1.53
2018-01-21T13:08:22.642Z,1.20
2018-01-21T13:10:51.060Z,1.10
2018-01-21T13:13:19.132Z,1.30
2018-01-21T13:15:47.541Z,1.00
2018-01-21T13:18:15.932Z,2.50
2018-01-21T13:20:44.380Z,1.13
2018-01-21T13:23:13.529Z,1.47
2018-01-21T13:25:41.923Z,0.77
2018-01-21T13:28:10.357Z,2.03
2018-01-21T13:30:39.497Z,1.33
2018-01-21T13:33:07.885Z,1.43
2018-01-21T13:35:36.545Z,0.82
2018-01-21T13:38:04.935Z,1.20
2018-01-21T13:40:34.340Z,0.80
2018-01-21T13:43:02.776Z,0.80
2018-01-21T13:45:31.435Z,1.20
2018-01-21T13:48:00.095Z,0.70
2018-01-21T13:50:28.501Z,0.80
2018-01-21T13:52:57.147Z,0.70
2018-01-21T13:55:25.797Z,1.10
2018-01-21T13:57:54.981Z,1.40
2018-01-21T14:00:23.349Z,1.45
2018-01-21T14:02:52.065Z,0.80
2018-01-21T14:05:21.027Z,0.90
2018-01-21T14:07:49.733Z,1.20
2018-01-21T14:10:18.393Z,0.80
2018-01-21T14:12:47.137Z,2.40
2018-01-21T14:15:15.828Z,0.70
2018-01-21T14:17:45.301Z,1.40
2018-01-21T14:20:14.017Z,1.00
2018-01-21T14:22:42.706Z,0.60
2018-01-21T14:25:11.408Z,0.70
2018-01-21T14:27:40.888Z,1.40
2018-01-21T14:30:09.572Z,0.90
2018-01-21T14:32:38.222Z,0.70
2018-01-21T14:35:06.871Z,0.70
2018-01-21T14:37:36.345Z,0.62
2018-01-21T14:40:04.665Z,2.25
2018-01-21T14:42:34.116Z,2.20
2018-01-21T14:45:02.754Z,1.00
2018-01-21T14:47:32.148Z,2.45
2018-01-21T14:50:00.812Z,0.98
2018-01-21T14:52:29.464Z,0.75
2018-01-21T14:54:57.976Z,1.80
2018-01-21T14:57:26.678Z,0.60
2018-01-21T14:59:55.373Z,1.17
2018-01-21T15:02:24.050Z,0.60
2018-01-21T15:04:53.974Z,0.60
2018-01-21T15:07:22.833Z,0.60
2018-01-21T15:09:51.507Z,1.20
2018-01-21T15:12:20.242Z,1.65
2018-01-21T15:14:49.703Z,1.70
2018-01-21T15:17:18.376Z,3.35
2018-01-21T15:19:47.093Z,1.90
2018-01-21T15:22:15.753Z,0.90
2018-01-21T15:24:44.429Z,0.60
2018-01-21T15:27:13.105Z,1.37
2018-01-21T15:29:42.508Z,1.00
2018-01-21T15:32:11.175Z,0.85
2018-01-21T15:34:40.609Z,1.33
2018-01-21T15:37:09.247Z,1.10
2018-01-21T15:39:37.893Z,3.25
2018-01-21T15:42:06.561Z,4.25
2018-01-21T15:44:35.196Z,8.23
2018-01-21T15:47:03.847Z,2.97
2018-01-21T15:49:32.477Z,4.07
2018-01-21T15:52:01.128Z,4.60
2018-01-21T15:54:29.790Z,1.15
2018-01-21T15:56:59.213Z,3.25
2018-01-21T15:59:27.868Z,2.70
2018-01-21T16:01:56.530Z,2.78
2018-01-21T16:04:25.204Z,0.85
2018-01-21T16:06:53.844Z,1.62
2018-01-21T16:09:22.488Z,1.42
2018-01-21T16:11:51.128Z,5.95
2018-01-21T16:14:19.799Z,6.60
2018-01-21T16:16:48.508Z,2.17
2018-01-21T16:19:17.007Z,1.60
2018-01-21T16:21:48.441Z,2.12
2018-01-21T16:24:17.064Z,3.28
2018-01-21T16:26:45.717Z,2.40
2018-01-21T16:29:16.807Z,2.05
2018-01-21T16:31:45.468Z,1.37
2018-01-21T16:34:14.097Z,1.10
2018-01-21T16:36:44.456Z,2.35
2018-01-21T16:39:13.275Z,2.00
2018-01-21T16:41:42.037Z,1.60
2018-01-21T16:44:10.705Z,5.40
2018-01-21T16:46:39.348Z,5.80
2018-01-21T16:49:07.988Z,6.00
2018-01-21T16:51:36.632Z,4.62
2018-01-21T16:54:05.284Z,6.45
2018-01-21T16:56:33.925Z,5.40
2018-01-21T16:59:03.312Z,3.25
2018-01-21T17:01:31.964Z,2.20
2018-01-21T17:04:00.605Z,4.10
2018-01-21T17:06:30.004Z,3.08
2018-01-21T17:08:59.452Z,5.87
2018-01-21T17:11:27.762Z,5.15
2018-01-21T17:13:56.605Z,2.17
2018-01-21T17:16:25.261Z,3.75
2018-01-21T17:18:54.660Z,0.88
2018-01-21T17:21:24.069Z,2.85
2018-01-21T17:23:53.524Z,2.80
2018-01-21T17:26:22.156Z,2.95
2018-01-21T17:28:51.556Z,3.45
2018-01-21T17:31:20.200Z,4.30
2018-01-21T17:33:48.831Z,7.93
2018-01-21T17:36:18.232Z,3.95
2018-01-21T17:38:47.648Z,3.25
2018-01-21T17:41:16.488Z,4.47
2018-01-21T17:43:45.118Z,2.15
2018-01-21T17:46:13.752Z,1.42
2018-01-21T17:48:42.421Z,2.92
2018-01-21T17:51:11.048Z,2.90
2018-01-21T17:53:39.691Z,3.03
2018-01-21T17:56:08.402Z,4.68
2018-01-21T17:58:37.033Z,7.12
2018-01-21T18:01:06.272Z,6.87
2018-01-21T18:03:34.928Z,2.50
2018-01-21T18:06:05.031Z,2.78
2018-01-21T18:08:33.688Z,3.55
2018-01-21T18:11:02.344Z,2.05
2018-01-21T18:13:31.013Z,1.25
2018-01-21T18:15:59.670Z,1.05
2018-01-21T18:18:28.312Z,1.70
2018-01-21T18:20:56.998Z,9.15
2018-01-21T18:23:25.653Z,15.13
2018-01-21T18:25:54.296Z,12.00
2018-01-21T18:28:22.985Z,9.00
2018-01-21T18:30:51.652Z,7.43
2018-01-21T18:33:20.294Z,3.17
2018-01-21T18:35:48.968Z,12.15
2018-01-21T18:38:18.474Z,10.65
2018-01-21T18:40:47.102Z,5.43
2018-01-21T18:43:15.737Z,6.97
2018-01-21T18:45:44.417Z,8.00
2018-01-21T18:48:13.094Z,6.03
2018-01-21T18:50:41.804Z,6.65
2018-01-21T18:53:10.493Z,6.45
2018-01-21T18:55:39.156Z,21.12
2018-01-21T18:58:08.003Z,16.12
2018-01-21T19:00:36.382Z,10.80
2018-01-21T19:03:05.090Z,36.42
2018-01-21T19:05:33.804Z,133.32
2018-01-21T19:08:02.461Z,23.05
2018-01-21T19:10:31.167Z,19.65
2018-01-21T19:12:59.892Z,13.93
2018-01-21T19:15:29.361Z,19.30
2018-01-21T19:17:58.086Z,14.07
2018-01-21T19:20:28.858Z,27.23
2018-01-21T19:22:57.588Z,33.40
2018-01-21T19:25:26.309Z,21.40
2018-01-21T19:27:55.255Z,15.77
2018-01-21T19:30:23.946Z,14.20
2018-01-21T19:32:52.621Z,13.85
2018-01-21T19:35:21.390Z,2.67
2018-01-21T19:37:50.045Z,3.55
2018-01-21T19:40:19.321Z,9.07
2018-01-21T19:45:57.422Z,5.03
2018-01-21T19:48:26.121Z,7.70
2018-01-21T19:50:55.254Z,1.40
2018-01-21T19:53:23.988Z,2.22
2018-01-21T19:55:52.671Z,2.65
2018-01-21T19:58:21.348Z,8.35
2018-01-21T20:00:50.098Z,3.37
2018-01-21T20:03:18.791Z,2.75
2018-01-21T20:05:48.112Z,3.95
2018-01-21T20:08:17.531Z,1.00
2018-01-21T20:10:46.217Z,2.87
2018-01-21T20:13:14.402Z,2.20
2018-01-21T20:15:43.155Z,1.67
2018-01-21T20:18:12.612Z,4.28
2018-01-21T20:20:41.343Z,8.95
2018-01-21T20:23:10.892Z,10.43
2018-01-21T20:25:39.605Z,2.22
2018-01-21T20:28:08.297Z,1.70
2018-01-21T20:30:36.988Z,3.85
2018-01-21T20:33:05.697Z,1.08
2018-01-21T20:36:08.138Z,1.10
2018-01-21T20:38:36.818Z,1.52
2018-01-21T20:41:06.680Z,1.15
2018-01-21T20:43:36.097Z,1.52
2018-01-21T20:46:04.861Z,0.80
2018-01-21T20:48:34.310Z,1.55
2018-01-21T20:51:08.379Z,1.10
2018-01-21T20:53:43.396Z,1.58
2018-01-21T20:56:12.121Z,2.05
2018-01-21T20:58:40.816Z,1.17
2018-01-21T21:04:23.776Z,1.20
2018-01-21T21:06:52.432Z,5.65
2018-01-21T21:09:21.860Z,2.40
2018-01-21T21:11:50.597Z,1.35
2018-01-21T21:14:19.243Z,0.95
2018-01-21T21:16:47.904Z,1.45
2018-01-21T21:19:17.365Z,4.15
2018-01-21T21:21:45.996Z,6.57
2018-01-21T21:24:15.401Z,2.17
2018-01-21T21:26:44.888Z,1.45
2018-01-21T21:29:13.548Z,1.42
2018-01-21T21:31:42.076Z,1.80
2018-01-21T21:34:10.753Z,1.87
2018-01-21T21:36:59.492Z,1.70
2018-01-21T21:39:27.824Z,2.67
2018-01-21T21:41:56.549Z,2.00
2018-01-21T21:44:25.232Z,1.87
2018-01-21T21:46:53.700Z,1.83
2018-01-21T21:49:22.408Z,1.85
2018-01-21T21:51:51.052Z,3.22
2018-01-21T21:54:19.863Z,3.05
2018-01-21T21:56:48.563Z,2.67
2018-01-21T21:59:17.189Z,2.67
2018-01-21T22:01:47.373Z,4.12
2018-01-21T22:04:16.041Z,4.28
2018-01-21T22:06:45.380Z,4.45
2018-01-21T22:09:14.080Z,6.57
2018-01-21T22:11:43.685Z,3.47
2018-01-21T22:14:13.190Z,5.68
2018-01-21T22:16:49.243Z,7.25
2018-01-21T22:19:18.669Z,1.70
2018-01-21T22:22:01.884Z,3.12
2018-01-21T22:24:30.548Z,3.78
2018-01-21T22:26:59.268Z,1.90
2018-01-21T22:29:27.966Z,1.73
2018-01-21T22:31:57.288Z,2.12
2018-01-21T22:34:25.992Z,2.12
2018-01-21T22:36:54.865Z,1.48
2018-01-21T22:39:23.537Z,3.08
2018-01-21T22:41:52.198Z,1.77
2018-01-21T22:44:20.862Z,3.00
2018-01-21T22:46:49.633Z,4.90
2018-01-21T22:52:05.026Z,2.35
2018-01-21T22:57:23.177Z,2.03
2018-01-21T22:59:51.841Z,2.55
2018-01-21T23:02:20.522Z,1.92
2018-01-21T23:04:49.256Z,1.75
2018-01-21T23:10:14.465Z,1.80
2018-01-21T23:12:43.148Z,2.55
2018-01-21T23:15:11.849Z,1.92
2018-01-21T23:17:49.606Z,2.70
2018-01-21T23:23:35.555Z,2.90
2018-01-21T23:26:04.216Z,3.62
2018-01-21T23:28:32.861Z,1.87
2018-01-21T23:31:01.566Z,2.20
2018-01-21T23:33:30.198Z,2.22
2018-01-21T23:35:58.838Z,2.75
2018-01-21T23:38:27.485Z,2.12
2018-01-21T23:40:56.128Z,2.25
2018-01-21T23:43:24.791Z,1.60
2018-01-21T23:45:54.255Z,1.60
2018-01-21T23:48:22.941Z,2.60
2018-01-21T23:50:51.616Z,4.15
2018-01-21T23:53:20.325Z,2.28
2018-01-21T23:55:48.997Z,2.53
2018-01-21T23:58:25.196Z,2.20
